Latest Weather Observations for Moruya Airport

IDN60801

Issued at 7:42 pm EST Wednesday 12 August 2020 (issued every 10 minutes, with the page automatically refreshed every 10 minutes)

About weather observations | Map of weather stations | Latest weather observations for NSW | Other Formats
Station Details ID: 069148 Name: MORUYA AIRPORT AWS Lat: -35.90 Lon: 150.14 Height: 4.0 m
Data from the previous 72 hours. | See also: Recent months at Moruya Airport
Date/Time
EST
Temp
°C
App
Temp
°C
Dew
Point
°C
Rel
Hum
%
Delta-T
°C
Wind Press
QNH
hPa
Press
MSL
hPa
Rain since
9am
mm
Dir  Spd
km/h
Gust
km/h
Spd
kts
Gust
kts
12/07:30pm 11.9 10.2 9.8 87 1.1 NNW 9 13 5 7 1011.6 1011.6 0.2
12/07:00pm 11.9 11.5 9.6 86 1.2 N 2 9 1 5 1011.7 1011.7 0.2
12/06:30pm 12.4 11.3 9.8 84 1.3 NNW 6 9 3 5 1011.4 1011.4 0.2
12/06:00pm 12.1 10.7 9.7 85 1.2 N 7 11 4 6 1011.1 1011.1 0.2
12/05:30pm 13.0 11.7 10.0 82 1.5 NNW 7 9 4 5 1011.1 1011.1 0.2
12/05:00pm 13.6 12.3 10.0 79 1.9 NNW 7 11 4 6 1010.8 1010.8 0.2
12/04:30pm 13.9 12.6 9.9 77 2.1 N 7 11 4 6 1010.8 1010.8 0.2
12/04:00pm 13.8 12.2 10.2 79 1.9 N 9 13 5 7 1010.8 1010.8 0.2
12/03:30pm 13.8 12.0 9.6 76 2.2 N 9 13 5 7 1010.8 1010.8 0.2
12/03:00pm 14.9 12.5 8.8 67 3.1 N 11 15 6 8 1010.9 1010.9 0.0
12/02:30pm 15.2 13.3 8.9 66 3.2 N 9 11 5 6 1010.9 1010.9 0.0
12/02:00pm 15.3 13.2 8.1 62 3.6 N 9 17 5 9 1011.0 1011.0 0.0
12/01:30pm 15.1 12.2 8.1 63 3.5 NNE 13 17 7 9 1011.2 1011.2 0.0
12/01:00pm 15.1 12.6 8.1 63 3.5 NNW 11 15 6 8 1011.6 1011.6 0.0
12/12:30pm 16.2 14.0 7.9 58 4.2 N 9 13 5 7 1012.3 1012.3 0.0
12/12:00pm 15.0 12.7 7.5 61 3.7 NNW 9 13 5 7 1012.9 1012.9 0.0
12/11:30am 14.0 11.3 7.3 64 3.3 NNW 11 17 6 9 1013.6 1013.6 0.0
12/11:00am 13.5 11.2 7.5 67 2.9 NNW 9 15 5 8 1014.2 1014.2 0.0
12/10:30am 12.3 10.4 7.4 72 2.4 NNW 7 13 4 7 1014.7 1014.7 0.0
12/10:00am 12.7 10.6 6.7 67 2.9 N 7 13 4 7 1014.7 1014.7 0.0
12/09:30am 12.4 9.3 7.1 70 2.6 N 13 17 7 9 1015.1 1015.1 0.0
12/09:00am 12.4 9.6 6.9 69 2.6 N 11 19 6 10 1014.7 1014.7 0.0
12/08:30am 11.4 9.0 6.9 74 2.1 NNW 9 13 5 7 1014.8 1014.8 0.0
12/08:00am 11.0 8.1 6.6 74 2.1 NNW 11 17 6 9 1014.8 1014.8 0.0
12/07:30am 10.6 7.3 6.2 74 2.0 NNW 13 19 7 10 1014.7 1014.7 0.0
12/07:00am 10.1 6.7 6.1 76 1.8 NNW 13 19 7 10 1014.8 1014.8 0.0
12/06:30am 10.2 6.9 6.2 76 1.9 NNW 13 20 7 11 1014.7 1014.7 0.0
12/06:00am 9.3 6.0 6.4 82 1.3 NNW 13 17 7 9 1014.6 1014.6 0.0
12/05:30am 7.4 4.8 6.2 92 0.5 NNW 9 13 5 7 1014.7 1014.7 0.0
12/05:00am 6.8 4.6 5.3 90 0.7 NNW 6 9 3 5 1015.0 1015.0 0.0
12/04:30am 7.6 5.5 5.6 87 0.9 NNW 6 9 3 5 1014.8 1014.8 0.0
12/04:00am 8.8 6.2 5.9 82 1.3 NNW 9 15 5 8 1014.8 1014.8 0.0
12/03:30am 8.2 6.1 6.5 89 0.8 NW 7 13 4 7 1014.8 1014.8 0.0
12/03:00am 7.7 4.7 6.0 89 0.8 NNW 11 17 6 9 1015.2 1015.2 0.0
12/02:30am 7.1 4.4 5.7 91 0.6 NNW 9 15 5 8 1015.5 1015.5 0.0
12/02:00am 7.6 4.8 6.9 95 0.3 N 11 19 6 10 1016.0 1016.0 0.0
12/01:30am 6.6 4.9 5.9 95 0.3 WSW 4 7 2 4 1016.3 1016.3 0.0
12/01:00am 7.1 4.9 6.4 95 0.3 NW 7 9 4 5 1016.5 1016.5 0.0
12/12:30am 6.9 5.3 6.2 95 0.3 W 4 7 2 4 1016.8 1016.8 0.0
12/12:00am 6.6 5.7 5.9 95 0.3 CALM 0 0 0 0 1016.6 1016.6 0.0
 
Date/Time
EST
Temp
°C
App
Temp
°C
Dew
Point
°C
Rel
Hum
%
Delta-T
°C
Wind Press
QNH
hPa
Press
MSL
hPa
Rain since
9am
mm
Dir  Spd
km/h
Gust
km/h
Spd
kts
Gust
kts
11/11:30pm 6.3 4.1 5.4 94 0.4 W 6 9 3 5 1016.7 1016.7 0.0
11/11:00pm 6.6 4.5 5.6 93 0.4 WSW 6 7 3 4 1017.1 1017.1 0.0
11/10:30pm 7.0 5.7 5.9 93 0.5 WSW 2 6 1 3 1017.1 1017.1 0.0
11/10:00pm 7.2 5.1 6.0 92 0.5 WNW 6 9 3 5 1017.3 1017.3 0.0
11/09:30pm 7.6 5.6 6.1 90 0.7 NW 6 9 3 5 1017.4 1017.4 0.0
11/09:00pm 8.0 6.0 6.1 88 0.9 W 6 7 3 4 1017.8 1017.8 0.0
11/08:30pm 8.9 6.8 6.5 85 1.1 N 7 11 4 6 1017.8 1017.8 0.0
11/08:00pm 9.6 7.0 6.3 80 1.5 NNW 9 13 5 7 1017.9 1017.9 0.0
11/07:30pm 11.0 8.4 7.7 80 1.6 N 11 15 6 8 1017.7 1017.7 0.0
11/07:00pm 10.9 8.4 6.6 75 2.0 N 9 15 5 8 1017.6 1017.6 0.0
11/06:30pm 12.7 10.1 7.6 71 2.5 N 11 17 6 9 1017.5 1017.5 0.0
11/06:00pm 12.9 10.3 7.6 70 2.6 N 11 17 6 9 1017.1 1017.1 0.0
11/05:30pm 13.3 9.8 7.3 67 2.9 N 15 20 8 11 1016.8 1016.8 0.0
11/05:00pm 14.5 9.5 8.0 65 3.2 NNE 24 32 13 17 1016.4 1016.4 0.0
11/04:30pm 14.9 9.8 7.7 62 3.6 NNE 24 30 13 16 1016.3 1016.3 0.0
11/04:00pm 15.4 10.3 7.7 60 3.8 NNE 24 33 13 18 1016.5 1016.5 0.0
11/03:30pm 15.7 10.5 7.2 57 4.2 NE 24 32 13 17 1016.8 1016.8 0.0
11/03:00pm 16.1 11.0 7.6 57 4.2 NE 24 32 13 17 1017.0 1017.0 0.0
11/02:30pm 16.0 11.2 7.2 56 4.4 NE 22 28 12 15 1017.1 1017.1 0.0
11/02:00pm 17.5 14.3 6.7 49 5.3 N 13 24 7 13 1017.4 1017.4 0.0
11/01:30pm 16.8 12.2 5.4 47 5.5 NNE 19 24 10 13 1017.7 1017.7 0.0
11/01:00pm 16.8 12.7 6.0 49 5.2 N 17 24 9 13 1018.0 1018.0 0.0
11/12:30pm 16.5 11.9 5.5 48 5.3 NNE 19 28 10 15 1018.5 1018.5 0.0
11/12:00pm 16.3 12.5 5.6 49 5.1 N 15 26 8 14 1019.2 1019.2 0.0
11/11:30am 16.0 11.6 5.0 48 5.2 NNW 17 26 9 14 1019.9 1019.9 0.0
11/11:00am 15.7 12.1 5.0 49 5.0 N 13 22 7 12 1020.4 1020.4 0.0
11/10:30am 14.8 11.8 5.9 55 4.3 W 11 17 6 9 1020.8 1020.8 0.0
11/10:00am 14.0 10.9 5.6 57 3.9 WNW 11 15 6 8 1021.0 1021.0 0.0
11/09:30am 12.5 9.4 5.7 63 3.2 W 11 19 6 10 1021.2 1021.2 0.0
11/09:00am 11.3 8.1 5.2 66 2.8 W 11 15 6 8 1021.4 1021.4 0.0
11/08:30am 10.8 7.9 4.9 67 2.7 W 9 15 5 8 1021.5 1021.5 0.0
11/08:00am 9.7 7.2 4.7 71 2.2 W 7 11 4 6 1021.4 1021.4 0.0
11/07:30am 9.6 6.7 4.6 71 2.2 W 9 15 5 8 1021.5 1021.5 0.0
11/07:00am 9.7 6.9 5.1 73 2.1 WSW 9 11 5 6 1021.5 1021.5 0.0
11/06:30am 8.4 6.3 5.9 84 1.1 NE 6 9 3 5 1021.3 1021.3 0.0
11/06:00am 8.7 7.7 5.4 80 1.5 CALM 0 7 0 4 1021.0 1021.0 0.0
11/05:30am 9.2 7.1 5.8 79 1.6 NE 6 9 3 5 1020.9 1020.9 0.0
11/05:00am 9.8 8.3 5.2 73 2.1 NE 2 7 1 4 1020.9 1020.9 0.0
11/04:30am 10.1 6.9 5.1 71 2.3 SW 11 15 6 8 1020.8 1020.8 0.0
11/04:00am 10.2 7.9 5.0 70 2.3 W 6 7 3 4 1020.9 1020.9 0.0
11/03:30am 10.3 7.9 5.1 70 2.4 WSW 7 9 4 5 1021.0 1021.0 0.0
11/03:00am 10.9 8.0 4.6 65 2.8 WSW 9 13 5 7 1021.1 1021.1 0.0
11/02:30am 10.6 8.1 4.7 67 2.7 WSW 7 11 4 6 1021.3 1021.3 0.0
11/02:00am 10.7 7.8 4.8 67 2.7 W 9 11 5 6 1021.5 1021.5 0.0
11/01:30am 10.7 7.5 5.3 69 2.5 WSW 11 15 6 8 1021.7 1021.7 0.0
11/01:00am 10.7 7.4 4.8 67 2.7 WSW 11 15 6 8 1021.7 1021.7 0.0
11/12:30am 10.8 7.4 4.0 63 3.0 WSW 11 17 6 9 1021.5 1021.5 0.0
11/12:00am 11.0 8.0 4.2 63 3.0 WSW 9 13 5 7 1021.6 1021.6 0.0
 
Date/Time
EST
Temp
°C
App
Temp
°C
Dew
Point
°C
Rel
Hum
%
Delta-T
°C
Wind Press
QNH
hPa
Press
MSL
hPa
Rain since
9am
mm
Dir  Spd
km/h
Gust
km/h
Spd
kts
Gust
kts
10/11:30pm 9.6 6.9 5.8 77 1.7 WSW 9 13 5 7 1021.6 1021.6 0.0
10/11:00pm 9.9 7.5 5.1 72 2.2 W 7 9 4 5 1021.9 1021.9 0.0
10/10:30pm 9.1 6.7 5.3 77 1.7 W 7 11 4 6 1022.1 1022.1 0.0
10/10:00pm 9.4 6.5 4.6 72 2.1 WSW 9 11 5 6 1022.1 1022.1 0.0
10/09:30pm 9.8 7.0 5.0 72 2.2 W 9 13 5 7 1022.2 1022.2 0.0
10/09:00pm 10.9 9.6 6.1 72 2.2 WSW 2 7 1 4 1022.4 1022.4 0.0
10/08:30pm 11.4 9.0 5.3 66 2.8 W 7 11 4 6 1022.5 1022.5 0.0
10/08:00pm 12.0 8.3 4.7 61 3.3 WSW 13 20 7 11 1022.3 1022.3 0.0
10/07:30pm 11.9 8.0 5.3 64 3.0 SW 15 19 8 10 1022.2 1022.2 0.0
10/07:00pm 12.0 8.5 5.6 65 3.0 SW 13 17 7 9 1022.3 1022.3 0.0
10/06:30pm 12.0 8.5 5.6 65 3.0 SW 13 19 7 10 1022.0 1022.0 0.0
10/06:00pm 11.8 9.5 5.7 66 2.8 SW 7 9 4 5 1021.9 1021.9 0.0
10/05:30pm 12.4 8.5 5.3 62 3.3 SSW 15 19 8 10 1021.6 1021.6 0.0
10/05:00pm 12.7 8.0 5.1 60 3.5 S 19 32 10 17 1021.5 1021.5 0.0
10/04:30pm 13.0 8.7 5.4 60 3.5 S 17 22 9 12 1021.2 1021.2 0.0
10/04:00pm 13.3 8.9 5.0 57 3.8 SSW 17 20 9 11 1020.9 1020.9 0.0
10/03:30pm 13.5 9.2 5.4 58 3.8 SSW 17 24 9 13 1021.1 1021.1 0.0
10/03:00pm 13.7 9.5 5.6 58 3.8 SSW 17 24 9 13 1021.2 1021.2 0.0
10/02:30pm 13.7 9.0 5.1 56 4.0 SSW 19 24 10 13 1021.1 1021.1 0.0
10/02:00pm 13.6 8.8 5.7 59 3.7 SW 20 28 11 15 1021.1 1021.1 0.0
10/01:30pm 13.3 8.9 6.6 64 3.2 SW 19 28 10 15 1021.3 1021.3 0.0
10/01:00pm 13.4 7.2 6.3 62 3.4 SSW 28 39 15 21 1021.4 1021.4 0.0
10/12:30pm 13.7 7.5 6.1 60 3.6 SW 28 44 15 24 1021.4 1021.4 0.0
10/12:00pm 13.9 8.2 6.7 62 3.5 SSW 26 39 14 21 1021.5 1021.5 0.0
10/11:30am 13.9 8.6 6.7 62 3.5 SSW 24 32 13 17 1021.8 1021.8 0.0
10/11:00am 13.2 8.2 6.5 64 3.2 SSW 22 32 12 17 1021.8 1021.8 0.0
10/10:30am 12.6 7.5 6.0 64 3.1 SSW 22 32 12 17 1021.6 1021.6 0.0
10/10:00am 12.3 7.6 5.9 65 3.0 SW 20 32 11 17 1021.7 1021.7 0.0
10/09:30am 11.8 7.3 5.9 67 2.8 SSW 19 26 10 14 1021.6 1021.6 0.0
10/09:00am 11.9 6.0 5.8 66 2.8 SW 26 33 14 18 1021.0 1021.0 15.0
10/08:30am 11.6 6.1 6.1 69 2.6 SSW 24 37 13 20 1020.8 1020.8 15.0
10/08:00am 11.1 5.4 6.5 73 2.2 SSW 26 35 14 19 1020.4 1020.4 15.0
10/07:30am 10.7 4.6 6.8 77 1.8 SW 28 41 15 22 1019.8 1019.8 15.0
10/07:00am 10.4 5.2 7.3 81 1.5 SW 24 32 13 17 1019.3 1019.3 15.0
10/06:30am 10.1 5.5 8.0 87 1.0 SW 22 30 12 16 1019.1 1019.1 15.0
10/06:00am 10.2 4.4 8.1 87 1.0 SW 28 41 15 22 1018.7 1018.7 14.8
10/05:30am 10.0 5.1 8.3 89 0.8 SW 24 35 13 19 1018.2 1018.2 14.4
10/05:00am 10.3 5.6 9.1 92 0.6 SW 24 32 13 17 1018.1 1018.1 14.4
10/04:57am 10.3 5.9 9.1 92 0.6 SW 22 32 12 17 1018.1 1018.1 14.4
10/04:30am 10.6 6.7 9.4 92 0.6 SSW 20 28 11 15 1018.1 1018.1 14.2
10/04:28am 10.6 6.9 9.4 92 0.6 SSW 19 28 10 15 1018.1 1018.1 14.2
10/04:00am 10.8 6.4 9.1 89 0.8 SW 22 30 12 16 1017.8 1017.8 13.0
10/03:30am 11.3 6.3 8.2 81 1.5 SW 24 33 13 18 1017.6 1017.6 13.0
10/03:00am 12.2 7.0 7.1 71 2.4 SSW 24 37 13 20 1017.4 1017.4 13.0
10/02:30am 13.8 7.2 6.2 60 3.6 S 30 46 16 25 1017.0 1017.0 13.0
10/02:00am 13.7 6.7 6.8 63 3.3 S 33 43 18 23 1017.2 1017.2 13.0
10/01:30am 13.5 6.9 7.7 68 2.9 S 32 44 17 24 1017.2 1017.2 13.0
10/01:00am 13.7 7.2 8.1 69 2.8 S 32 46 17 25 1016.9 1016.9 13.0
10/12:30am 13.7 7.2 9.0 73 2.4 S 33 48 18 26 1016.7 1016.7 13.0
10/12:00am 13.5 6.9 10.1 80 1.8 S 35 46 19 25 1016.6 1016.6 13.0
 
Date/Time
EST
Temp
°C
App
Temp
°C
Dew
Point
°C
Rel
Hum
%
Delta-T
°C
Wind Press
QNH
hPa
Press
MSL
hPa
Rain since
9am
mm
Dir  Spd
km/h
Gust
km/h
Spd
kts
Gust
kts
09/11:31pm 12.6 7.2 10.8 89 0.9 S 30 48 16 26 1016.6 1016.6 12.8
09/11:30pm 12.7 6.9 10.9 89 0.9 S 32 48 17 26 1016.6 1016.6 12.8
09/11:18pm 12.8 7.0 10.7 87 1.1 S 32 52 17 28 1016.5 1016.5 12.2
09/11:02pm 12.8 7.7 10.7 87 1.1 S 28 46 15 25 1016.4 1016.4 11.4
09/11:00pm 13.0 7.5 10.5 85 1.3 S 30 46 16 25 1016.7 1016.7 11.2
09/10:53pm 13.7 7.4 9.7 77 2.1 S 33 52 18 28 1016.7 1016.7 10.6
09/10:30pm 14.8 7.6 7.6 62 3.6 SSE 35 52 19 28 1016.4 1016.4 10.6
09/10:02pm 14.8 6.5 7.6 62 3.6 SSE 41 59 22 32 1016.1 1016.1 10.6
09/10:00pm 14.9 6.6 7.7 62 3.6 SSE 41 57 22 31 1016.1 1016.1 10.6
09/09:30pm 14.8 7.2 9.2 69 2.9 SSE 39 59 21 32 1015.9 1015.9 10.6
09/09:05pm 13.0 7.0 10.0 82 1.5 S 32 50 17 27 1015.8 1015.8 10.6
09/09:00pm 13.1 6.6 10.3 83 1.4 SSE 35 52 19 28 1015.7 1015.7 10.6
09/08:37pm 13.2 6.1 9.6 79 1.8 SSE 37 56 20 30 1015.4 1015.4 10.4
09/08:30pm 13.1 5.9 10.5 84 1.4 SSE 39 54 21 29 1015.4 1015.4 10.2
09/08:21pm 13.0 6.2 10.7 86 1.2 SSE 37 54 20 29 1015.6 1015.6 10.0
09/08:09pm 13.2 7.3 10.4 83 1.5 SSE 32 44 17 24 1015.2 1015.2 9.6
09/08:00pm 12.5 6.2 11.1 91 0.7 SSE 35 48 19 26 1015.3 1015.3 9.6
09/07:58pm 12.4 5.7 11.0 91 0.7 SSE 37 56 20 30 1015.4 1015.4 9.6

Other formats

Comma delimited format used in spreadsheet applications
http://www.bom.gov.au/fwo/IDN60801/IDN60801.95937.axf

JavaScript Object Notation format (JSON) in row-major order
http://www.bom.gov.au/fwo/IDN60801/IDN60801.95937.json

Data quality

Most of these data are generated automatically and are frequently updated. Quality checks on data are not normally performed. It is possible for incorrect values to appear. Refer to information at About Latest Weather Observations and please check the disclaimer before using these data.